createdAt,value
2023-05-07T00:01:46.306Z,4.63
2023-05-07T00:04:14.373Z,4.70
2023-05-07T00:06:41.258Z,4.53
2023-05-07T00:09:08.243Z,4.47
2023-05-07T00:11:36.375Z,4.47
2023-05-07T00:14:03.988Z,4.45
2023-05-07T00:16:31.068Z,4.70
2023-05-07T00:18:57.828Z,4.47
2023-05-07T00:21:27.390Z,4.22
2023-05-07T00:23:54.910Z,4.55
2023-05-07T00:26:21.908Z,4.15
2023-05-07T00:28:50.362Z,3.50
2023-05-07T00:31:17.083Z,3.53
2023-05-07T00:33:43.755Z,3.92
2023-05-07T00:36:10.662Z,4.57
2023-05-07T00:38:37.361Z,3.85
2023-05-07T00:41:04.226Z,4.57
2023-05-07T00:43:30.890Z,4.25
2023-05-07T00:45:57.762Z,5.10
2023-05-07T00:48:25.421Z,4.53
2023-05-07T00:50:52.764Z,4.47
2023-05-07T00:53:19.600Z,4.72
2023-05-07T00:55:46.428Z,4.72
2023-05-07T00:58:13.548Z,4.72
2023-05-07T01:00:40.165Z,4.78
2023-05-07T01:03:06.940Z,5.57
2023-05-07T01:05:34.383Z,5.57
2023-05-07T01:08:02.659Z,5.43
2023-05-07T01:10:31.497Z,5.70
2023-05-07T01:12:59.755Z,6.13
2023-05-07T01:15:26.650Z,5.80
2023-05-07T01:17:53.463Z,5.97
2023-05-07T01:20:29.664Z,6.00
2023-05-07T01:22:58.548Z,6.03
2023-05-07T01:25:25.811Z,6.72
2023-05-07T01:27:56.041Z,6.18
2023-05-07T01:30:27.934Z,6.25
2023-05-07T01:33:05.025Z,6.60
2023-05-07T01:35:39.755Z,7.00
2023-05-07T01:38:07.813Z,7.43
2023-05-07T01:40:35.490Z,7.45
2023-05-07T01:43:06.698Z,7.68
2023-05-07T01:45:35.854Z,7.03
2023-05-07T01:48:03.868Z,7.22
2023-05-07T01:50:32.434Z,7.85
2023-05-07T01:52:59.120Z,8.77
2023-05-07T01:55:25.920Z,7.55
2023-05-07T01:57:52.589Z,8.07
2023-05-07T02:00:19.945Z,9.50
2023-05-07T02:02:46.799Z,10.10
2023-05-07T02:05:25.235Z,9.18
2023-05-07T02:08:10.086Z,9.95
2023-05-07T02:10:37.767Z,9.50
2023-05-07T02:13:06.422Z,10.07
2023-05-07T02:15:33.221Z,10.50
2023-05-07T02:18:10.172Z,10.35
2023-05-07T02:20:38.110Z,10.73
2023-05-07T02:23:04.824Z,10.30
2023-05-07T02:25:31.915Z,10.05
2023-05-07T02:27:59.397Z,9.90
2023-05-07T02:30:39.338Z,11.05
2023-05-07T02:33:07.299Z,9.88
2023-05-07T02:35:34.010Z,10.63
2023-05-07T02:38:01.055Z,11.02
2023-05-07T02:40:27.748Z,10.88
2023-05-07T02:42:54.461Z,11.25
2023-05-07T02:45:21.240Z,11.98
2023-05-07T02:47:50.313Z,10.82
2023-05-07T02:50:17.201Z,11.45
2023-05-07T02:52:43.967Z,12.00
2023-05-07T02:55:11.485Z,11.75
2023-05-07T02:57:38.206Z,12.52
2023-05-07T03:00:17.378Z,11.52
2023-05-07T03:02:51.799Z,12.90
2023-05-07T03:05:19.092Z,12.55
2023-05-07T03:07:47.046Z,12.55
2023-05-07T03:10:14.558Z,12.35
2023-05-07T03:12:41.349Z,12.13
2023-05-07T03:15:11.409Z,12.45
2023-05-07T03:17:38.307Z,11.77
2023-05-07T03:20:05.851Z,12.07
2023-05-07T03:22:33.423Z,12.40
2023-05-07T03:25:00.599Z,12.27
2023-05-07T03:27:27.307Z,12.13
2023-05-07T03:29:55.023Z,11.98
2023-05-07T03:32:21.782Z,12.50
2023-05-07T03:34:48.527Z,12.43
2023-05-07T03:37:15.361Z,12.10
2023-05-07T03:39:43.341Z,12.35
2023-05-07T03:42:10.784Z,12.60
2023-05-07T03:44:38.312Z,11.98
2023-05-07T03:47:05.558Z,12.30
2023-05-07T03:49:32.905Z,13.13
2023-05-07T03:52:00.508Z,11.57
2023-05-07T03:54:27.441Z,12.23
2023-05-07T03:56:54.163Z,12.25
2023-05-07T03:59:21.652Z,13.60
2023-05-07T04:01:49.743Z,12.65
2023-05-07T04:04:18.946Z,12.23
2023-05-07T04:06:45.851Z,12.15
2023-05-07T04:09:13.260Z,12.27
2023-05-07T04:11:41.129Z,11.07
2023-05-07T04:14:10.043Z,12.98
2023-05-07T04:16:37.329Z,12.38
2023-05-07T04:19:04.605Z,11.85
2023-05-07T04:21:32.029Z,12.40
2023-05-07T04:23:59.565Z,12.65
2023-05-07T04:26:26.343Z,13.32
2023-05-07T04:28:53.112Z,11.85
2023-05-07T04:31:19.978Z,13.05
2023-05-07T04:33:52.519Z,12.05
2023-05-07T04:36:19.812Z,11.45
2023-05-07T04:38:58.996Z,11.63
2023-05-07T04:41:25.894Z,12.93
2023-05-07T04:43:52.709Z,12.55
2023-05-07T04:46:23.229Z,12.32
2023-05-07T04:48:50.292Z,12.02
2023-05-07T04:51:17.036Z,12.48
2023-05-07T04:53:44.122Z,12.70
2023-05-07T04:56:11.006Z,13.00
2023-05-07T04:58:43.262Z,12.55
2023-05-07T05:01:10.693Z,12.32
2023-05-07T05:03:40.273Z,12.43
2023-05-07T05:06:07.295Z,12.10
2023-05-07T05:08:35.120Z,11.88
2023-05-07T05:11:03.765Z,11.23
2023-05-07T05:13:32.605Z,11.85
2023-05-07T05:16:01.744Z,12.65
2023-05-07T05:18:30.570Z,11.82
2023-05-07T05:20:57.354Z,11.52
2023-05-07T05:23:24.357Z,11.95
2023-05-07T05:25:55.924Z,12.10
2023-05-07T05:28:23.276Z,13.23
2023-05-07T05:30:50.075Z,11.95
2023-05-07T05:33:17.864Z,12.07
2023-05-07T05:35:44.568Z,12.30
2023-05-07T05:38:12.882Z,12.10
2023-05-07T05:40:41.024Z,11.55
2023-05-07T05:43:08.108Z,11.82
2023-05-07T05:45:35.276Z,12.65
2023-05-07T05:48:01.925Z,11.68
2023-05-07T05:50:30.061Z,11.70
2023-05-07T05:52:57.615Z,11.82
2023-05-07T05:55:25.934Z,12.10
2023-05-07T05:57:52.648Z,11.10
2023-05-07T06:00:23.267Z,11.73
2023-05-07T06:02:56.266Z,11.02
2023-05-07T06:05:25.049Z,10.82
2023-05-07T06:07:54.329Z,10.55
2023-05-07T06:10:21.449Z,11.10
2023-05-07T06:12:48.300Z,11.43
2023-05-07T06:15:16.278Z,11.18
2023-05-07T06:17:43.348Z,11.48
2023-05-07T06:20:11.665Z,10.80
2023-05-07T06:22:39.823Z,10.30
2023-05-07T06:25:06.955Z,11.45
2023-05-07T06:27:33.815Z,11.75
2023-05-07T06:30:00.536Z,10.73
2023-05-07T06:32:27.414Z,10.98
2023-05-07T06:34:55.026Z,10.77
2023-05-07T06:37:21.973Z,11.20
2023-05-07T06:40:02.135Z,11.32
2023-05-07T06:42:30.974Z,11.82
2023-05-07T06:45:00.885Z,11.25
2023-05-07T06:47:30.963Z,10.77
2023-05-07T06:49:58.783Z,11.25
2023-05-07T06:52:29.424Z,11.30
2023-05-07T06:54:56.447Z,11.80
2023-05-07T06:57:25.638Z,11.07
2023-05-07T06:59:52.457Z,11.57
2023-05-07T07:02:20.095Z,12.07
2023-05-07T07:04:49.260Z,11.18
2023-05-07T07:07:15.985Z,11.30
2023-05-07T07:09:45.092Z,11.05
2023-05-07T07:12:14.171Z,11.68
2023-05-07T07:14:41.857Z,11.45
2023-05-07T07:17:08.687Z,11.75
2023-05-07T07:19:36.370Z,12.02
2023-05-07T07:22:04.270Z,11.20
2023-05-07T07:24:31.556Z,10.68
2023-05-07T07:27:01.799Z,11.18
2023-05-07T07:29:28.906Z,10.73
2023-05-07T07:31:56.205Z,10.70
2023-05-07T07:34:23.223Z,10.65
2023-05-07T07:36:50.636Z,10.77
2023-05-07T07:39:19.095Z,10.77
2023-05-07T07:41:47.895Z,11.20
2023-05-07T07:44:16.516Z,11.80
2023-05-07T07:46:47.272Z,10.82
2023-05-07T07:49:14.235Z,10.68
2023-05-07T07:51:41.680Z,10.98
2023-05-07T07:54:10.165Z,10.15
2023-05-07T07:56:37.349Z,10.35
2023-05-07T07:59:05.902Z,12.05
2023-05-07T08:01:33.933Z,10.98
2023-05-07T08:04:01.445Z,10.85
2023-05-07T08:06:30.808Z,10.93
2023-05-07T08:08:57.617Z,11.25
2023-05-07T08:11:24.544Z,11.00
2023-05-07T08:13:52.923Z,10.40
2023-05-07T08:16:20.348Z,10.70
2023-05-07T08:18:48.222Z,10.25
2023-05-07T08:21:14.976Z,10.35
2023-05-07T08:23:42.060Z,11.70
2023-05-07T08:26:09.875Z,11.13
2023-05-07T08:28:37.997Z,10.73
2023-05-07T08:31:04.822Z,11.23
2023-05-07T08:33:35.661Z,10.60
2023-05-07T08:36:02.332Z,11.95
2023-05-07T08:38:29.946Z,10.95
2023-05-07T08:40:56.747Z,10.60
2023-05-07T08:43:27.181Z,10.93
2023-05-07T08:45:56.261Z,10.80
2023-05-07T08:48:30.642Z,10.05
2023-05-07T08:51:06.176Z,10.65
2023-05-07T08:53:33.939Z,11.70
2023-05-07T08:56:00.990Z,11.38
2023-05-07T08:58:29.518Z,11.25
2023-05-07T09:00:57.067Z,10.68
2023-05-07T09:03:24.484Z,10.50
2023-05-07T09:05:53.795Z,11.55
2023-05-07T09:08:26.024Z,11.82
2023-05-07T09:10:53.773Z,11.02
2023-05-07T09:13:21.392Z,10.57
2023-05-07T09:15:48.370Z,10.98
2023-05-07T09:18:16.590Z,10.82
2023-05-07T09:20:44.500Z,11.55
2023-05-07T09:23:11.385Z,11.32
2023-05-07T09:25:38.485Z,11.20
2023-05-07T09:28:12.967Z,10.15
2023-05-07T09:30:39.667Z,11.13
2023-05-07T09:33:09.612Z,10.93
2023-05-07T09:35:40.867Z,10.80
2023-05-07T09:38:12.326Z,11.65
2023-05-07T09:40:39.001Z,10.93
2023-05-07T09:43:12.756Z,9.70
2023-05-07T09:45:44.052Z,10.23
2023-05-07T09:48:12.747Z,11.05
2023-05-07T09:50:52.413Z,9.18
2023-05-07T09:53:23.522Z,10.55
2023-05-07T09:55:51.890Z,9.38
2023-05-07T09:58:19.865Z,9.68
2023-05-07T10:00:47.984Z,9.73
2023-05-07T10:03:17.007Z,8.80
2023-05-07T10:05:52.617Z,9.23
2023-05-07T10:08:21.223Z,9.27
2023-05-07T10:10:51.104Z,8.50
2023-05-07T10:13:22.814Z,8.48
2023-05-07T10:15:53.154Z,8.73
2023-05-07T10:18:30.329Z,7.50
2023-05-07T10:21:07.851Z,8.20
2023-05-07T10:23:35.646Z,7.30
2023-05-07T10:26:06.267Z,7.82
2023-05-07T10:28:41.688Z,8.52
2023-05-07T10:31:37.957Z,7.80
2023-05-07T10:34:11.627Z,7.13
2023-05-07T10:36:40.100Z,8.40
2023-05-07T10:39:07.658Z,6.93
2023-05-07T10:41:35.225Z,6.93
2023-05-07T10:44:03.072Z,7.75
2023-05-07T10:46:36.318Z,8.05
2023-05-07T10:49:11.145Z,7.65
2023-05-07T10:52:24.240Z,7.22
2023-05-07T10:55:26.473Z,7.25
2023-05-07T11:01:00.911Z,7.40
2023-05-07T11:03:33.936Z,7.43
2023-05-07T11:06:12.329Z,7.38
2023-05-07T11:08:57.440Z,6.95
2023-05-07T11:12:00.729Z,8.07
2023-05-07T11:14:46.706Z,7.45
2023-05-07T11:17:18.113Z,6.78
2023-05-07T11:19:54.424Z,7.07
2023-05-07T11:22:40.828Z,6.90
2023-05-07T11:25:26.659Z,6.47
2023-05-07T11:28:06.532Z,6.93
2023-05-07T11:30:33.846Z,6.00
2023-05-07T11:33:01.003Z,6.32
2023-05-07T11:35:28.172Z,6.40
2023-05-07T11:38:01.353Z,6.20
2023-05-07T11:40:29.930Z,5.70
2023-05-07T11:42:56.590Z,5.68
2023-05-07T11:45:26.846Z,5.90
2023-05-07T11:47:53.665Z,5.57
2023-05-07T11:50:20.634Z,5.47
2023-05-07T11:52:53.733Z,6.00
2023-05-07T11:55:20.780Z,5.97
2023-05-07T11:57:48.627Z,6.05
2023-05-07T12:00:17.362Z,6.25
2023-05-07T12:02:46.592Z,5.47
2023-05-07T12:05:13.669Z,5.88
2023-05-07T12:07:40.798Z,5.45
2023-05-07T12:10:08.101Z,5.88
2023-05-07T12:12:42.876Z,6.03
2023-05-07T12:15:10.433Z,5.28
2023-05-07T12:17:37.745Z,5.72
2023-05-07T12:20:05.998Z,4.85
2023-05-07T12:22:32.870Z,5.30
2023-05-07T12:24:59.972Z,5.28
2023-05-07T12:27:27.220Z,5.75
2023-05-07T12:29:53.892Z,5.20
2023-05-07T12:32:22.250Z,6.13
2023-05-07T12:34:52.704Z,5.63
2023-05-07T12:37:27.921Z,5.15
2023-05-07T12:40:09.931Z,5.20
2023-05-07T12:42:38.158Z,4.82
2023-05-07T12:45:17.522Z,4.78
2023-05-07T12:47:46.178Z,4.75
2023-05-07T12:50:14.989Z,4.70
2023-05-07T12:52:42.025Z,5.18
2023-05-07T12:55:09.931Z,4.07
2023-05-07T12:57:41.482Z,5.03
2023-05-07T13:00:09.866Z,4.72
2023-05-07T13:02:40.775Z,4.88
2023-05-07T13:05:08.413Z,4.65
2023-05-07T13:07:35.445Z,4.13
2023-05-07T13:10:02.223Z,4.88
2023-05-07T13:12:28.985Z,4.05
2023-05-07T13:14:55.707Z,3.85
2023-05-07T13:17:22.448Z,3.45
2023-05-07T13:19:49.249Z,2.75
2023-05-07T13:22:15.917Z,3.80
2023-05-07T13:24:44.566Z,3.50
2023-05-07T13:27:11.310Z,3.33
2023-05-07T13:29:37.953Z,3.40
2023-05-07T13:32:04.947Z,4.03
2023-05-07T13:34:31.662Z,3.90
2023-05-07T13:36:58.369Z,3.38
2023-05-07T13:39:25.045Z,3.08
2023-05-07T13:41:51.706Z,3.08
2023-05-07T13:44:18.408Z,3.17
2023-05-07T13:46:45.089Z,3.17
2023-05-07T13:49:13.396Z,3.80
2023-05-07T13:51:40.004Z,3.33
2023-05-07T13:54:06.826Z,3.67
2023-05-07T13:56:33.524Z,3.40
2023-05-07T13:59:01.057Z,3.20
2023-05-07T14:01:28.342Z,3.05
2023-05-07T14:03:56.367Z,2.70
2023-05-07T14:06:23.090Z,2.88
2023-05-07T14:08:50.160Z,3.00
2023-05-07T14:11:16.993Z,2.78
2023-05-07T14:13:43.692Z,2.85
2023-05-07T14:16:10.376Z,3.38
2023-05-07T14:18:38.013Z,2.97
2023-05-07T14:21:07.229Z,3.28
2023-05-07T14:23:33.916Z,3.00
2023-05-07T14:26:00.724Z,3.35
2023-05-07T14:28:27.390Z,3.28
2023-05-07T14:30:54.088Z,3.47
2023-05-07T14:33:20.793Z,3.40
2023-05-07T14:35:49.709Z,3.70
2023-05-07T14:38:16.634Z,4.10
2023-05-07T14:40:43.530Z,4.38
2023-05-07T14:43:10.243Z,3.63
2023-05-07T14:45:36.877Z,3.80
2023-05-07T14:48:04.032Z,3.25
2023-05-07T14:50:31.014Z,3.40
2023-05-07T14:52:57.658Z,3.83
2023-05-07T14:55:24.305Z,3.70
2023-05-07T14:57:51.004Z,3.33
2023-05-07T15:00:17.841Z,3.70
2023-05-07T15:02:44.632Z,4.28
2023-05-07T15:05:11.676Z,3.67
2023-05-07T15:07:38.573Z,4.25
2023-05-07T15:10:05.766Z,4.57
2023-05-07T15:12:32.379Z,4.88
2023-05-07T15:14:59.054Z,4.50
2023-05-07T15:17:25.902Z,3.92
2023-05-07T15:19:54.384Z,3.75
2023-05-07T15:22:22.468Z,3.95
2023-05-07T15:24:49.321Z,3.95
2023-05-07T15:27:17.861Z,4.13
2023-05-07T15:29:44.483Z,3.67
2023-05-07T15:32:11.373Z,3.90
2023-05-07T15:34:38.185Z,4.25
2023-05-07T15:37:04.885Z,3.75
2023-05-07T15:39:31.977Z,3.30
2023-05-07T15:41:58.628Z,3.60
2023-05-07T15:44:29.566Z,3.33
2023-05-07T15:46:56.226Z,3.80
2023-05-07T15:49:23.105Z,3.65
2023-05-07T15:51:51.641Z,5.32
2023-05-07T15:54:20.878Z,28.55
2023-05-07T15:56:47.915Z,14.65
2023-05-07T15:59:16.358Z,5.47
2023-05-07T16:01:43.482Z,4.43
2023-05-07T16:04:10.704Z,4.35
2023-05-07T16:06:37.429Z,3.58
2023-05-07T16:09:04.150Z,4.05
2023-05-07T16:11:30.818Z,3.97
2023-05-07T16:13:57.550Z,3.67
2023-05-07T16:16:26.598Z,3.45
2023-05-07T16:18:53.279Z,3.67
2023-05-07T16:21:19.972Z,3.45
2023-05-07T16:23:46.899Z,3.50
2023-05-07T16:26:14.454Z,3.88
2023-05-07T16:28:41.195Z,3.53
2023-05-07T16:31:08.692Z,3.30
2023-05-07T16:33:36.093Z,4.25
2023-05-07T16:36:03.381Z,4.15
2023-05-07T16:38:33.029Z,5.43
2023-05-07T16:41:00.195Z,4.03
2023-05-07T16:43:27.276Z,4.35
2023-05-07T16:45:54.029Z,4.55
2023-05-07T16:48:21.332Z,3.65
2023-05-07T16:50:48.127Z,3.75
2023-05-07T16:53:14.870Z,3.40
2023-05-07T16:55:41.625Z,3.78
2023-05-07T16:58:10.101Z,3.35
2023-05-07T17:00:48.998Z,3.33
2023-05-07T17:03:17.440Z,3.90
2023-05-07T17:05:44.489Z,3.90
2023-05-07T17:08:11.125Z,3.80
2023-05-07T17:10:37.814Z,4.00
2023-05-07T17:13:04.549Z,3.70
2023-05-07T17:15:31.365Z,4.10
2023-05-07T17:17:58.174Z,3.97
2023-05-07T17:20:25.735Z,4.50
2023-05-07T17:22:52.539Z,4.85
2023-05-07T17:25:19.432Z,4.18
2023-05-07T17:27:46.168Z,4.07
2023-05-07T17:30:13.812Z,4.35
2023-05-07T17:32:41.560Z,4.38
2023-05-07T17:35:08.831Z,4.72
2023-05-07T17:37:35.548Z,4.22
2023-05-07T17:40:03.053Z,4.13
2023-05-07T17:42:31.837Z,4.40
2023-05-07T17:44:58.540Z,4.25
2023-05-07T17:47:25.384Z,4.20
2023-05-07T17:49:52.045Z,4.43
2023-05-07T17:52:18.716Z,4.85
2023-05-07T17:54:45.556Z,4.60
2023-05-07T17:57:12.343Z,4.72
2023-05-07T17:59:40.055Z,5.20
2023-05-07T18:02:06.831Z,4.25
2023-05-07T18:04:33.583Z,5.15
2023-05-07T18:07:00.337Z,4.95
2023-05-07T18:09:27.032Z,5.03
2023-05-07T18:11:53.931Z,5.38
2023-05-07T18:14:24.262Z,4.75
2023-05-07T18:16:51.365Z,5.13
2023-05-07T18:19:18.309Z,4.93
2023-05-07T18:21:44.931Z,5.40
2023-05-07T18:24:11.722Z,4.70
2023-05-07T18:26:38.413Z,10.50
2023-05-07T18:29:05.182Z,6.57
2023-05-07T18:31:31.871Z,5.95
2023-05-07T18:33:58.615Z,5.30
2023-05-07T18:36:25.417Z,6.60
2023-05-07T18:38:56.465Z,5.63
2023-05-07T18:41:23.201Z,6.18
2023-05-07T18:43:49.824Z,5.38
2023-05-07T18:46:16.516Z,5.07
2023-05-07T18:48:43.299Z,4.78
2023-05-07T18:51:12.603Z,4.88
2023-05-07T18:53:40.245Z,5.30
2023-05-07T18:56:07.429Z,4.75
2023-05-07T18:58:34.715Z,4.88
2023-05-07T19:01:01.756Z,5.13
2023-05-07T19:03:29.816Z,5.72
2023-05-07T19:05:56.512Z,5.25
2023-05-07T19:08:23.217Z,5.45
2023-05-07T19:10:49.884Z,4.88
2023-05-07T19:13:16.847Z,5.10
2023-05-07T19:15:43.595Z,5.00
2023-05-07T19:18:11.277Z,5.07
2023-05-07T19:20:37.927Z,5.13
2023-05-07T19:23:06.726Z,7.78
2023-05-07T19:25:33.743Z,15.18
2023-05-07T19:28:00.482Z,8.10
2023-05-07T19:30:27.181Z,6.70
2023-05-07T19:32:53.885Z,5.95
2023-05-07T19:35:20.646Z,6.28
2023-05-07T19:37:47.489Z,7.13
2023-05-07T19:40:14.784Z,7.32
2023-05-07T19:42:41.472Z,6.22
2023-05-07T19:45:08.579Z,5.13
2023-05-07T19:47:35.324Z,5.60
2023-05-07T19:50:02.088Z,5.00
2023-05-07T19:52:28.755Z,5.30
2023-05-07T19:54:56.026Z,4.93
2023-05-07T19:57:22.831Z,4.72
2023-05-07T19:59:49.469Z,4.78
2023-05-07T20:02:16.531Z,4.90
2023-05-07T20:04:43.350Z,4.55
2023-05-07T20:07:10.133Z,4.70
2023-05-07T20:09:36.796Z,5.53
2023-05-07T20:12:03.726Z,5.25
2023-05-07T20:14:30.439Z,5.00
2023-05-07T20:16:57.126Z,5.32
2023-05-07T20:19:23.797Z,5.35
2023-05-07T20:21:50.522Z,5.45
2023-05-07T20:24:19.147Z,4.65
2023-05-07T20:26:46.622Z,5.15
2023-05-07T20:29:13.381Z,5.20
2023-05-07T20:31:40.161Z,5.13
2023-05-07T20:34:07.292Z,5.43
2023-05-07T20:36:34.187Z,5.25
2023-05-07T20:39:00.869Z,5.50
2023-05-07T20:41:27.690Z,5.35
2023-05-07T20:43:54.414Z,5.97
2023-05-07T20:46:22.427Z,5.55
2023-05-07T20:48:49.745Z,5.65
2023-05-07T20:51:16.499Z,5.93
2023-05-07T20:53:47.943Z,5.68
2023-05-07T20:56:15.318Z,5.60
2023-05-07T20:58:42.023Z,5.90
2023-05-07T21:01:08.786Z,5.40
2023-05-07T21:03:35.580Z,5.93
2023-05-07T21:06:03.016Z,6.28
2023-05-07T21:08:30.341Z,7.15
2023-05-07T21:10:57.312Z,6.38
2023-05-07T21:13:24.132Z,7.13
2023-05-07T21:15:50.994Z,6.65
2023-05-07T21:18:18.830Z,6.22
2023-05-07T21:20:45.618Z,6.40
2023-05-07T21:23:12.276Z,6.57
2023-05-07T21:25:39.346Z,7.25
2023-05-07T21:28:07.781Z,6.82
2023-05-07T21:30:34.949Z,7.05
2023-05-07T21:33:01.735Z,7.28
2023-05-07T21:35:28.609Z,7.10
2023-05-07T21:37:55.425Z,6.70
2023-05-07T21:40:22.080Z,7.53
2023-05-07T21:42:48.741Z,7.35
2023-05-07T21:45:15.488Z,6.70
2023-05-07T21:47:42.184Z,7.30
2023-05-07T21:50:09.337Z,7.38
2023-05-07T21:52:36.348Z,7.50
2023-05-07T21:55:03.655Z,7.47
2023-05-07T21:57:30.551Z,7.47
2023-05-07T21:59:57.284Z,7.28
2023-05-07T22:02:24.088Z,7.20
2023-05-07T22:04:50.883Z,7.38
2023-05-07T22:07:17.563Z,7.93
2023-05-07T22:09:44.215Z,8.25
2023-05-07T22:12:11.501Z,7.88
2023-05-07T22:14:38.230Z,7.78
2023-05-07T22:17:04.926Z,8.43
2023-05-07T22:19:31.621Z,8.10
2023-05-07T22:21:58.325Z,8.13
2023-05-07T22:24:25.030Z,7.35
2023-05-07T22:26:51.714Z,8.65
2023-05-07T22:29:18.402Z,8.00
2023-05-07T22:31:45.535Z,8.38
2023-05-07T22:34:12.218Z,7.30
2023-05-07T22:36:38.953Z,8.02
2023-05-07T22:39:07.412Z,8.35
2023-05-07T22:41:34.293Z,8.82
2023-05-07T22:44:00.962Z,8.60
2023-05-07T22:46:27.846Z,7.75
2023-05-07T22:48:54.684Z,8.57
2023-05-07T22:51:21.642Z,8.13
2023-05-07T22:53:48.302Z,8.13
2023-05-07T22:56:15.652Z,8.18
2023-05-07T22:58:42.364Z,7.65
2023-05-07T23:01:16.419Z,8.43
2023-05-07T23:03:43.279Z,7.50
2023-05-07T23:06:10.522Z,7.90
2023-05-07T23:08:37.234Z,8.38
2023-05-07T23:11:03.980Z,8.38
2023-05-07T23:13:30.698Z,7.85
2023-05-07T23:15:58.842Z,8.98
2023-05-07T23:18:27.919Z,8.75
2023-05-07T23:20:54.861Z,8.63
2023-05-07T23:23:22.020Z,8.27
2023-05-07T23:25:52.317Z,7.32
2023-05-07T23:28:19.062Z,7.93
2023-05-07T23:30:45.796Z,8.48
2023-05-07T23:33:12.503Z,8.02
2023-05-07T23:35:39.164Z,8.55
2023-05-07T23:38:05.825Z,8.65
2023-05-07T23:40:32.527Z,7.85
2023-05-07T23:42:59.233Z,7.13
2023-05-07T23:45:26.257Z,6.75
2023-05-07T23:47:52.954Z,7.00
2023-05-07T23:50:19.657Z,7.22
2023-05-07T23:52:46.350Z,6.40
2023-05-07T23:55:13.758Z,6.93
2023-05-07T23:57:40.429Z,6.13
